createdAt,value
2023-01-19T00:00:35.214Z,100.00
2023-01-19T00:03:04.316Z,100.00
2023-01-19T00:05:31.232Z,100.00
2023-01-19T00:08:14.470Z,100.00
2023-01-19T00:10:44.098Z,100.00
2023-01-19T00:13:10.940Z,100.00
2023-01-19T00:15:37.816Z,100.00
2023-01-19T00:18:04.739Z,99.99
2023-01-19T00:20:32.818Z,100.00
2023-01-19T00:23:00.324Z,100.00
2023-01-19T00:25:27.711Z,100.00
2023-01-19T00:27:55.229Z,100.00
2023-01-19T00:30:24.380Z,100.00
2023-01-19T00:32:51.530Z,100.00
2023-01-19T00:35:18.390Z,100.00
2023-01-19T00:37:46.023Z,100.00
2023-01-19T00:40:14.133Z,100.00
2023-01-19T00:42:41.188Z,100.00
2023-01-19T00:45:10.938Z,99.59
2023-01-19T00:47:39.390Z,98.78
2023-01-19T00:50:08.222Z,97.88
2023-01-19T00:52:34.983Z,98.35
2023-01-19T00:55:01.824Z,98.57
2023-01-19T00:57:29.564Z,99.14
2023-01-19T00:59:56.626Z,98.66
2023-01-19T01:02:23.901Z,98.94
2023-01-19T01:04:54.909Z,99.77
2023-01-19T01:07:23.426Z,100.00
2023-01-19T01:09:51.092Z,99.39
2023-01-19T01:12:17.899Z,97.97
2023-01-19T01:14:44.759Z,98.83
2023-01-19T01:17:14.178Z,98.33
2023-01-19T01:19:41.788Z,98.42
2023-01-19T01:22:09.854Z,98.76
2023-01-19T01:24:36.710Z,98.95
2023-01-19T01:27:03.639Z,99.38
2023-01-19T01:29:30.427Z,99.54
2023-01-19T01:31:57.325Z,99.46
2023-01-19T01:34:24.178Z,99.81
2023-01-19T01:36:51.262Z,100.00
2023-01-19T01:39:18.149Z,100.00
2023-01-19T01:41:44.949Z,100.00
2023-01-19T01:44:49.905Z,99.95
2023-01-19T01:47:39.375Z,99.72
2023-01-19T01:50:18.192Z,100.00
2023-01-19T01:53:05.979Z,99.87
2023-01-19T01:55:41.227Z,99.64
2023-01-19T01:58:10.261Z,99.60
2023-01-19T02:00:57.021Z,99.39
2023-01-19T02:03:25.674Z,99.27
2023-01-19T02:05:57.517Z,100.00
2023-01-19T02:08:48.834Z,100.00
2023-01-19T02:11:35.345Z,100.00
2023-01-19T02:14:05.813Z,100.00
2023-01-19T02:16:33.579Z,99.60
2023-01-19T02:19:01.212Z,100.00
2023-01-19T02:21:44.256Z,100.00
2023-01-19T02:24:11.624Z,99.94
2023-01-19T02:26:43.970Z,100.00
2023-01-19T02:29:14.979Z,100.00
2023-01-19T02:31:42.250Z,100.00
2023-01-19T02:34:15.346Z,100.00
2023-01-19T02:37:06.714Z,99.62
2023-01-19T02:39:45.829Z,100.00
2023-01-19T02:42:30.872Z,99.38
2023-01-19T02:44:58.156Z,98.64
2023-01-19T02:47:25.002Z,99.55
2023-01-19T02:49:58.349Z,99.19
2023-01-19T02:52:27.006Z,98.92
2023-01-19T02:55:19.779Z,98.08
2023-01-19T02:57:49.649Z,97.97
2023-01-19T03:00:38.387Z,97.69
2023-01-19T03:03:40.306Z,96.08
2023-01-19T03:06:16.698Z,96.31
2023-01-19T03:09:09.076Z,96.48
2023-01-19T03:11:41.980Z,96.01
2023-01-19T03:14:15.769Z,96.42
2023-01-19T03:16:55.565Z,96.75
2023-01-19T03:19:27.831Z,97.64
2023-01-19T03:22:22.483Z,97.95
2023-01-19T03:24:53.644Z,98.36
2023-01-19T03:27:26.719Z,97.62
2023-01-19T03:29:59.335Z,96.97
2023-01-19T03:32:32.527Z,97.32
2023-01-19T03:35:03.048Z,97.17
2023-01-19T03:37:31.741Z,96.41
2023-01-19T03:39:58.707Z,95.78
2023-01-19T03:42:27.197Z,95.60
2023-01-19T03:44:56.446Z,96.03
2023-01-19T03:47:24.113Z,95.55
2023-01-19T03:49:53.356Z,95.70
2023-01-19T03:52:29.743Z,95.54
2023-01-19T03:54:56.713Z,96.38
2023-01-19T03:57:23.662Z,97.08
2023-01-19T03:59:50.519Z,96.97
2023-01-19T04:02:17.471Z,97.19
2023-01-19T04:04:44.391Z,97.16
2023-01-19T04:07:11.552Z,97.42
2023-01-19T04:09:38.425Z,97.34
2023-01-19T04:12:05.332Z,96.79
2023-01-19T04:14:32.272Z,96.19
2023-01-19T04:16:59.072Z,96.94
2023-01-19T04:19:25.877Z,97.29
2023-01-19T04:21:52.726Z,97.03
2023-01-19T04:24:19.624Z,96.71
2023-01-19T04:26:46.424Z,97.10
2023-01-19T04:29:14.291Z,96.51
2023-01-19T04:31:41.189Z,96.00
2023-01-19T04:34:07.971Z,94.87
2023-01-19T04:36:35.278Z,95.42
2023-01-19T04:39:02.129Z,95.34
2023-01-19T04:41:30.312Z,95.65
2023-01-19T04:43:57.904Z,96.00
2023-01-19T04:46:25.038Z,95.43
2023-01-19T04:48:51.900Z,95.19
2023-01-19T04:51:18.757Z,95.46
2023-01-19T04:53:45.901Z,95.31
2023-01-19T04:56:12.745Z,94.69
2023-01-19T04:58:39.982Z,95.60
2023-01-19T05:01:10.094Z,95.67
2023-01-19T05:03:36.978Z,95.77
2023-01-19T05:06:03.911Z,95.94
2023-01-19T05:08:30.974Z,96.11
2023-01-19T05:10:57.916Z,96.24
2023-01-19T05:13:24.799Z,96.52
2023-01-19T05:15:51.605Z,95.74
2023-01-19T05:18:18.570Z,95.81
2023-01-19T05:20:45.428Z,95.91
2023-01-19T05:23:12.276Z,96.16
2023-01-19T05:25:39.139Z,95.92
2023-01-19T05:28:06.077Z,96.31
2023-01-19T05:30:33.019Z,96.90
2023-01-19T05:33:00.223Z,97.33
2023-01-19T05:35:35.662Z,97.46
2023-01-19T05:38:03.255Z,97.30
2023-01-19T05:40:30.068Z,97.69
2023-01-19T05:43:00.739Z,97.98
2023-01-19T05:45:30.769Z,98.45
2023-01-19T05:47:57.809Z,97.98
2023-01-19T05:50:25.282Z,97.69
2023-01-19T05:52:55.055Z,97.45
2023-01-19T05:55:22.503Z,97.28
2023-01-19T05:57:49.336Z,96.47
2023-01-19T06:00:16.661Z,95.70
2023-01-19T06:02:43.682Z,95.12
2023-01-19T06:05:10.815Z,94.27
2023-01-19T06:07:37.671Z,93.45
2023-01-19T06:10:05.121Z,92.59
2023-01-19T06:12:32.497Z,93.32
2023-01-19T06:14:59.728Z,93.56
2023-01-19T06:17:26.519Z,93.81
2023-01-19T06:19:53.358Z,95.59
2023-01-19T06:22:20.224Z,95.49
2023-01-19T06:24:47.149Z,95.84
2023-01-19T06:27:13.986Z,95.61
2023-01-19T06:29:40.996Z,95.70
2023-01-19T06:32:08.062Z,96.03
2023-01-19T06:34:34.934Z,95.21
2023-01-19T06:37:01.720Z,95.02
2023-01-19T06:39:28.541Z,94.44
2023-01-19T06:41:55.343Z,94.29
2023-01-19T06:44:22.208Z,94.32
2023-01-19T06:46:49.127Z,92.95
2023-01-19T06:49:16.010Z,94.07
2023-01-19T06:51:42.856Z,94.14
2023-01-19T06:54:09.708Z,93.63
2023-01-19T06:56:36.535Z,93.27
2023-01-19T06:59:03.352Z,93.60
2023-01-19T07:01:30.300Z,93.99
2023-01-19T07:03:57.249Z,93.82
2023-01-19T07:06:24.232Z,93.99
2023-01-19T07:08:51.062Z,94.00
2023-01-19T07:11:26.140Z,94.03
2023-01-19T07:13:57.667Z,94.43
2023-01-19T07:16:24.688Z,95.94
2023-01-19T07:18:51.558Z,95.91
2023-01-19T07:21:19.131Z,96.43
2023-01-19T07:23:49.796Z,96.26
2023-01-19T07:26:19.795Z,95.87
2023-01-19T07:28:48.222Z,95.38
2023-01-19T07:31:15.800Z,95.40
2023-01-19T07:33:42.902Z,95.94
2023-01-19T07:36:10.330Z,96.12
2023-01-19T07:38:37.100Z,95.62
2023-01-19T07:41:06.915Z,95.85
2023-01-19T07:43:34.616Z,95.86
2023-01-19T07:46:03.632Z,95.38
2023-01-19T07:48:30.602Z,95.13
2023-01-19T07:51:05.198Z,94.80
2023-01-19T07:53:32.695Z,95.01
2023-01-19T07:55:59.566Z,95.05
2023-01-19T07:58:26.889Z,95.05
2023-01-19T08:00:53.868Z,95.50
2023-01-19T08:03:20.735Z,95.50
2023-01-19T08:05:51.962Z,95.56
2023-01-19T08:08:19.745Z,95.19
2023-01-19T08:10:50.813Z,94.86
2023-01-19T08:13:18.479Z,94.11
2023-01-19T08:15:45.486Z,92.97
2023-01-19T08:18:14.686Z,91.65
2023-01-19T08:20:41.662Z,91.37
2023-01-19T08:23:08.410Z,91.46
2023-01-19T08:25:39.466Z,91.36
2023-01-19T08:28:07.924Z,91.11
2023-01-19T08:30:35.333Z,90.87
2023-01-19T08:33:05.114Z,90.50
2023-01-19T08:35:37.495Z,89.55
2023-01-19T08:38:06.104Z,88.66
2023-01-19T08:40:37.659Z,88.45
2023-01-19T08:43:08.211Z,87.80
2023-01-19T08:45:37.305Z,87.44
2023-01-19T08:48:06.252Z,85.60
2023-01-19T08:50:34.305Z,83.43
2023-01-19T08:53:03.694Z,84.54
2023-01-19T08:55:30.812Z,85.40
2023-01-19T08:57:59.910Z,84.94
2023-01-19T09:00:27.597Z,83.96
2023-01-19T09:02:54.853Z,83.04
2023-01-19T09:05:21.689Z,83.78
2023-01-19T09:07:48.706Z,83.13
2023-01-19T09:10:16.765Z,83.18
2023-01-19T09:12:45.112Z,83.05
2023-01-19T09:15:13.932Z,82.96
2023-01-19T09:17:42.263Z,83.58
2023-01-19T09:20:10.103Z,85.96
2023-01-19T09:22:37.104Z,86.46
2023-01-19T09:25:04.219Z,87.68
2023-01-19T09:27:31.204Z,87.91
2023-01-19T09:29:57.995Z,88.30
2023-01-19T09:32:24.843Z,88.46
2023-01-19T09:34:52.420Z,87.95
2023-01-19T09:37:19.421Z,87.71
2023-01-19T09:39:46.350Z,87.22
2023-01-19T09:42:42.551Z,86.89
2023-01-19T09:45:20.071Z,85.20
2023-01-19T09:47:49.204Z,84.18
2023-01-19T09:50:39.403Z,83.55
2023-01-19T09:53:17.037Z,82.15
2023-01-19T09:55:43.888Z,82.73
2023-01-19T09:58:20.923Z,81.85
2023-01-19T10:00:55.377Z,82.16
2023-01-19T10:03:23.975Z,81.56
2023-01-19T10:06:04.803Z,80.46
2023-01-19T10:08:47.350Z,80.11
2023-01-19T10:11:42.089Z,78.77
2023-01-19T10:14:33.067Z,78.76
2023-01-19T10:17:21.395Z,80.52
2023-01-19T10:19:53.946Z,81.71
2023-01-19T10:22:27.166Z,83.09
2023-01-19T10:24:58.623Z,83.82
2023-01-19T10:27:31.209Z,83.65
2023-01-19T10:30:00.718Z,82.39
2023-01-19T10:32:32.718Z,78.67
2023-01-19T10:34:59.992Z,81.03
2023-01-19T10:37:37.172Z,79.81
2023-01-19T10:40:09.937Z,80.41
2023-01-19T10:42:39.963Z,79.68
2023-01-19T10:45:26.184Z,79.22
2023-01-19T10:47:54.819Z,78.27
2023-01-19T10:50:32.762Z,77.77
2023-01-19T10:53:03.882Z,78.44
2023-01-19T10:55:38.159Z,79.96
2023-01-19T10:58:07.170Z,79.10
2023-01-19T11:00:39.753Z,77.23
2023-01-19T11:03:31.213Z,77.90
2023-01-19T11:06:16.091Z,78.85
2023-01-19T11:08:45.271Z,79.67
2023-01-19T11:11:12.889Z,79.50
2023-01-19T11:13:40.790Z,78.74
2023-01-19T11:16:27.989Z,79.55
2023-01-19T11:18:56.966Z,79.88
2023-01-19T11:21:27.058Z,80.54
2023-01-19T11:24:00.811Z,80.28
2023-01-19T11:26:43.878Z,81.07
2023-01-19T11:29:24.218Z,81.32
2023-01-19T11:31:52.796Z,80.49
2023-01-19T11:34:35.117Z,80.67
2023-01-19T11:37:18.515Z,80.08
2023-01-19T11:39:50.083Z,78.38
2023-01-19T11:42:18.119Z,79.35
2023-01-19T11:45:05.184Z,79.36
2023-01-19T11:47:52.550Z,79.66
2023-01-19T11:50:31.995Z,78.88
2023-01-19T11:53:06.610Z,78.85
2023-01-19T11:55:51.887Z,79.13
2023-01-19T11:58:19.948Z,79.72
2023-01-19T12:00:51.787Z,79.79
2023-01-19T12:03:43.226Z,79.02
2023-01-19T12:06:19.982Z,79.04
2023-01-19T12:08:57.958Z,79.91
2023-01-19T12:11:32.266Z,80.30
2023-01-19T12:14:00.291Z,79.20
2023-01-19T12:16:31.240Z,79.55
2023-01-19T12:19:04.304Z,78.95
2023-01-19T12:21:31.212Z,79.23
2023-01-19T12:24:18.653Z,80.51
2023-01-19T12:27:00.975Z,80.79
2023-01-19T12:29:34.187Z,80.60
2023-01-19T12:32:16.662Z,80.84
2023-01-19T12:34:49.062Z,80.95
2023-01-19T12:37:40.659Z,81.24
2023-01-19T12:40:31.256Z,81.64
2023-01-19T12:43:05.235Z,80.20
2023-01-19T12:45:39.783Z,79.83
2023-01-19T12:48:25.162Z,79.91
2023-01-19T12:50:51.909Z,80.29
2023-01-19T12:53:22.591Z,79.62
2023-01-19T12:56:00.025Z,80.28
2023-01-19T12:58:27.376Z,81.15
2023-01-19T13:01:21.435Z,80.39
2023-01-19T13:04:24.479Z,80.60
2023-01-19T13:06:54.327Z,80.61
2023-01-19T13:09:38.476Z,80.12
2023-01-19T13:12:25.528Z,79.88
2023-01-19T13:15:29.155Z,80.28
2023-01-19T13:17:56.739Z,80.47
2023-01-19T13:20:34.973Z,81.29
2023-01-19T13:23:24.187Z,80.95
2023-01-19T13:26:03.079Z,80.59
2023-01-19T13:28:45.906Z,80.47
2023-01-19T13:31:13.590Z,80.57
2023-01-19T13:33:52.629Z,81.12
2023-01-19T13:36:33.576Z,81.35
2023-01-19T13:39:05.667Z,81.09
2023-01-19T13:41:37.771Z,82.06
2023-01-19T13:44:14.199Z,81.89
2023-01-19T13:46:41.376Z,81.99
2023-01-19T13:49:21.395Z,82.29
2023-01-19T13:52:14.884Z,82.14
2023-01-19T13:54:49.955Z,81.97
2023-01-19T13:57:41.218Z,82.25
2023-01-19T14:00:14.361Z,82.13
2023-01-19T14:02:58.652Z,80.98
2023-01-19T14:05:29.143Z,80.77
2023-01-19T14:08:12.294Z,80.69
2023-01-19T14:10:46.423Z,80.92
2023-01-19T14:13:17.797Z,82.18
2023-01-19T14:15:47.822Z,83.01
2023-01-19T14:18:18.304Z,82.77
2023-01-19T14:21:01.047Z,82.37
2023-01-19T14:24:06.927Z,82.19
2023-01-19T14:26:47.828Z,82.11
2023-01-19T14:29:33.245Z,82.50
2023-01-19T14:32:14.934Z,82.92
2023-01-19T14:35:04.105Z,84.33
2023-01-19T14:37:37.399Z,84.03
2023-01-19T14:40:24.436Z,84.67
2023-01-19T14:42:55.685Z,84.60
2023-01-19T14:45:28.375Z,84.64
2023-01-19T14:48:03.012Z,85.23
2023-01-19T14:50:37.510Z,84.72
2023-01-19T14:53:21.121Z,85.60
2023-01-19T14:55:51.308Z,85.38
2023-01-19T14:58:21.638Z,85.91
2023-01-19T15:00:49.707Z,86.04
2023-01-19T15:03:16.905Z,86.05
2023-01-19T15:05:46.670Z,86.25
2023-01-19T15:08:25.612Z,86.29
2023-01-19T15:10:52.408Z,85.44
2023-01-19T15:13:22.350Z,85.58
2023-01-19T15:15:50.245Z,85.35
2023-01-19T15:18:26.452Z,85.07
2023-01-19T15:21:02.584Z,86.18
2023-01-19T15:23:31.054Z,85.46
2023-01-19T15:26:04.175Z,85.88
2023-01-19T15:28:31.769Z,85.50
2023-01-19T15:31:00.046Z,86.36
2023-01-19T15:33:32.667Z,86.20
2023-01-19T15:35:59.470Z,86.86
2023-01-19T15:38:26.576Z,86.32
2023-01-19T15:40:53.429Z,86.95
2023-01-19T15:43:21.294Z,87.08
2023-01-19T15:46:02.458Z,87.07
2023-01-19T15:48:29.386Z,87.06
2023-01-19T15:50:56.271Z,88.92
2023-01-19T15:53:24.090Z,89.05
2023-01-19T15:55:55.261Z,90.29
2023-01-19T15:58:23.428Z,90.03
2023-01-19T16:00:56.078Z,90.31
2023-01-19T16:03:26.040Z,90.05
2023-01-19T16:05:52.898Z,90.19
2023-01-19T16:08:21.983Z,91.02
2023-01-19T16:10:48.810Z,91.33
2023-01-19T16:13:15.563Z,90.56
2023-01-19T16:15:42.497Z,91.25
2023-01-19T16:18:09.412Z,90.96
2023-01-19T16:20:36.300Z,89.78
2023-01-19T16:23:14.612Z,89.84
2023-01-19T16:25:42.100Z,91.50
2023-01-19T16:28:09.008Z,90.73
2023-01-19T16:30:35.867Z,90.80
2023-01-19T16:33:02.725Z,90.46
2023-01-19T16:35:29.505Z,91.17
2023-01-19T16:37:56.293Z,90.50
2023-01-19T16:40:23.151Z,91.45
2023-01-19T16:42:50.587Z,92.77
2023-01-19T16:45:17.445Z,93.07
2023-01-19T16:47:46.746Z,93.91
2023-01-19T16:50:13.666Z,94.91
2023-01-19T16:52:40.563Z,95.80
2023-01-19T16:55:09.553Z,96.37
2023-01-19T16:57:39.872Z,96.13
2023-01-19T17:00:10.217Z,96.51
2023-01-19T17:02:37.520Z,97.10
2023-01-19T17:05:04.871Z,97.39
2023-01-19T17:07:31.736Z,97.63
2023-01-19T17:09:58.635Z,97.86
2023-01-19T17:12:25.417Z,97.77
2023-01-19T17:14:52.259Z,96.36
2023-01-19T17:17:19.116Z,95.90
2023-01-19T17:19:46.004Z,96.81
2023-01-19T17:22:14.202Z,96.81
2023-01-19T17:24:42.402Z,96.98
2023-01-19T17:27:10.121Z,97.92
2023-01-19T17:29:37.003Z,98.66
2023-01-19T17:32:04.245Z,98.85
2023-01-19T17:34:31.135Z,97.72
2023-01-19T17:37:02.865Z,98.70
2023-01-19T17:39:30.281Z,98.41
2023-01-19T17:41:57.459Z,97.93
2023-01-19T17:44:24.676Z,98.49
2023-01-19T17:46:51.417Z,98.31
2023-01-19T17:49:18.197Z,97.75
2023-01-19T17:51:44.973Z,97.83
2023-01-19T17:54:14.460Z,97.58
2023-01-19T17:56:41.658Z,98.19
2023-01-19T17:59:08.822Z,98.23
2023-01-19T18:01:40.704Z,99.51
2023-01-19T18:04:09.099Z,99.37
2023-01-19T18:06:37.838Z,99.74
2023-01-19T18:09:07.744Z,100.00
2023-01-19T18:11:35.119Z,100.00
2023-01-19T18:14:02.136Z,100.00
2023-01-19T18:16:34.263Z,99.75
2023-01-19T18:19:01.760Z,100.00
2023-01-19T18:21:31.229Z,100.00
2023-01-19T18:24:04.746Z,100.00
2023-01-19T18:26:37.573Z,99.96
2023-01-19T18:29:04.927Z,100.00
2023-01-19T18:31:32.949Z,100.00
2023-01-19T18:33:59.907Z,100.00
2023-01-19T18:36:26.827Z,100.00
2023-01-19T18:38:53.827Z,100.00
2023-01-19T18:41:21.697Z,100.00
2023-01-19T18:43:49.239Z,100.00
2023-01-19T18:46:16.832Z,100.00
2023-01-19T18:48:43.978Z,100.00
2023-01-19T18:51:15.848Z,100.00
2023-01-19T18:53:44.233Z,100.00
2023-01-19T18:56:14.136Z,100.00
2023-01-19T18:58:41.773Z,100.00
2023-01-19T19:01:30.792Z,100.00
2023-01-19T19:03:59.470Z,100.00
2023-01-19T19:06:27.114Z,100.00
2023-01-19T19:08:56.483Z,100.00
2023-01-19T19:11:24.742Z,100.00
2023-01-19T19:14:02.733Z,100.00
2023-01-19T19:16:30.486Z,100.00
2023-01-19T19:18:59.042Z,100.00
2023-01-19T19:21:26.086Z,100.00
2023-01-19T19:23:57.818Z,100.00
2023-01-19T19:26:27.865Z,100.00
2023-01-19T19:28:54.792Z,100.00
2023-01-19T19:31:23.460Z,100.00
2023-01-19T19:33:51.109Z,100.00
2023-01-19T19:36:20.040Z,100.00
2023-01-19T19:38:48.196Z,100.00
2023-01-19T19:41:22.319Z,100.00
2023-01-19T19:43:49.488Z,100.00
2023-01-19T19:46:19.911Z,100.00
2023-01-19T19:48:48.638Z,100.00
2023-01-19T19:51:25.657Z,100.00
2023-01-19T19:53:54.595Z,100.00
2023-01-19T19:56:24.173Z,100.00
2023-01-19T19:58:54.074Z,100.00
2023-01-19T20:01:32.652Z,100.00
2023-01-19T20:04:09.098Z,100.00
2023-01-19T20:06:39.745Z,100.00
2023-01-19T20:09:10.265Z,100.00
2023-01-19T20:11:37.256Z,100.00
2023-01-19T20:14:09.870Z,100.00
2023-01-19T20:16:37.242Z,99.20
2023-01-19T20:19:05.230Z,99.02
2023-01-19T20:21:36.155Z,99.52
2023-01-19T20:24:10.491Z,98.53
2023-01-19T20:26:43.044Z,98.11
2023-01-19T20:29:11.043Z,98.93
2023-01-19T20:31:49.552Z,98.59
2023-01-19T20:34:19.560Z,98.07
2023-01-19T20:36:51.179Z,99.14
2023-01-19T20:39:19.812Z,99.02
2023-01-19T20:41:47.452Z,99.88
2023-01-19T20:44:22.635Z,99.47
2023-01-19T20:46:50.278Z,100.00
2023-01-19T20:49:17.350Z,100.00
2023-01-19T20:51:46.639Z,100.00
2023-01-19T20:54:16.269Z,100.00
2023-01-19T20:56:43.084Z,100.00
2023-01-19T20:59:11.167Z,99.78
2023-01-19T21:01:39.129Z,100.00
2023-01-19T21:04:06.611Z,100.00
2023-01-19T21:06:33.446Z,100.00
2023-01-19T21:09:00.290Z,100.00
2023-01-19T21:11:27.604Z,100.00
2023-01-19T21:13:57.222Z,100.00
2023-01-19T21:16:26.062Z,100.00
2023-01-19T21:18:53.105Z,100.00
2023-01-19T21:21:29.816Z,100.00
2023-01-19T21:23:59.908Z,100.00
2023-01-19T21:26:29.571Z,100.00
2023-01-19T21:29:01.026Z,100.00
2023-01-19T21:31:28.653Z,100.00
2023-01-19T21:33:58.704Z,100.00
2023-01-19T21:36:26.271Z,100.00
2023-01-19T21:38:55.370Z,100.00
2023-01-19T21:41:22.240Z,100.00
2023-01-19T21:43:49.035Z,100.00
2023-01-19T21:46:22.057Z,100.00
2023-01-19T21:48:48.951Z,100.00
2023-01-19T21:51:16.095Z,100.00
2023-01-19T21:53:43.031Z,100.00
2023-01-19T21:56:10.943Z,100.00
2023-01-19T21:58:37.829Z,100.00
2023-01-19T22:01:10.678Z,100.00
2023-01-19T22:03:37.615Z,100.00
2023-01-19T22:06:10.747Z,100.00
2023-01-19T22:08:37.726Z,100.00
2023-01-19T22:11:10.487Z,100.00
2023-01-19T22:13:41.404Z,100.00
2023-01-19T22:16:16.201Z,100.00
2023-01-19T22:18:46.525Z,100.00
2023-01-19T22:21:16.878Z,100.00
2023-01-19T22:23:47.402Z,100.00
2023-01-19T22:26:14.159Z,100.00
2023-01-19T22:28:40.954Z,100.00
2023-01-19T22:31:17.113Z,100.00
2023-01-19T22:33:45.005Z,100.00
2023-01-19T22:36:23.112Z,100.00
2023-01-19T22:38:58.821Z,100.00
2023-01-19T22:41:31.265Z,100.00
2023-01-19T22:44:01.129Z,100.00
2023-01-19T22:46:31.146Z,100.00
2023-01-19T22:48:58.707Z,100.00
2023-01-19T22:51:28.859Z,100.00
2023-01-19T22:53:55.788Z,100.00
2023-01-19T22:56:25.759Z,100.00
2023-01-19T22:58:53.749Z,100.00
2023-01-19T23:01:26.792Z,100.00
2023-01-19T23:03:54.865Z,100.00
2023-01-19T23:06:24.890Z,100.00
2023-01-19T23:08:53.829Z,100.00
2023-01-19T23:11:27.629Z,100.00
2023-01-19T23:13:54.615Z,100.00
2023-01-19T23:16:22.125Z,100.00
2023-01-19T23:18:56.674Z,100.00
2023-01-19T23:21:26.479Z,100.00
2023-01-19T23:24:01.874Z,100.00
2023-01-19T23:26:30.786Z,100.00
2023-01-19T23:29:02.026Z,100.00
2023-01-19T23:31:32.368Z,100.00
2023-01-19T23:34:02.747Z,100.00
2023-01-19T23:36:32.476Z,100.00
2023-01-19T23:39:03.162Z,100.00
2023-01-19T23:41:34.366Z,100.00
2023-01-19T23:44:01.913Z,100.00
2023-01-19T23:46:29.807Z,100.00
2023-01-19T23:48:56.797Z,100.00
2023-01-19T23:51:27.964Z,100.00
2023-01-19T23:53:56.254Z,100.00
2023-01-19T23:56:33.300Z,100.00
2023-01-19T23:59:05.964Z,100.00
